sensor_id;sensor_type;location;lat;lon;timestamp;temperature;humidity
51878;SHT31;37911;51.526;11.536;2023-01-09T00:01:24;4.78;87.16
51878;SHT31;37911;51.526;11.536;2023-01-09T00:04:29;4.79;87.22
51878;SHT31;37911;51.526;11.536;2023-01-09T00:07:32;4.81;87.22
51878;SHT31;37911;51.526;11.536;2023-01-09T00:10:38;4.72;87.07
51878;SHT31;37911;51.526;11.536;2023-01-09T00:13:41;4.67;87.15
51878;SHT31;37911;51.526;11.536;2023-01-09T00:16:45;4.58;87.06
51878;SHT31;37911;51.526;11.536;2023-01-09T00:19:48;4.50;86.97
51878;SHT31;37911;51.526;11.536;2023-01-09T00:22:51;4.41;86.98
51878;SHT31;37911;51.526;11.536;2023-01-09T00:26:05;4.33;87.11
51878;SHT31;37911;51.526;11.536;2023-01-09T00:29:09;4.25;87.29
51878;SHT31;37911;51.526;11.536;2023-01-09T00:32:13;4.25;87.40
51878;SHT31;37911;51.526;11.536;2023-01-09T00:35:17;4.24;87.31
51878;SHT31;37911;51.526;11.536;2023-01-09T00:38:20;4.16;87.22
51878;SHT31;37911;51.526;11.536;2023-01-09T00:41:29;4.16;87.14
51878;SHT31;37911;51.526;11.536;2023-01-09T00:44:37;4.14;87.17
51878;SHT31;37911;51.526;11.536;2023-01-09T00:47:43;4.16;87.08
51878;SHT31;37911;51.526;11.536;2023-01-09T00:50:49;4.10;86.99
51878;SHT31;37911;51.526;11.536;2023-01-09T00:53:53;4.09;86.88
51878;SHT31;37911;51.526;11.536;2023-01-09T00:57:00;4.00;86.83
51878;SHT31;37911;51.526;11.536;2023-01-09T01:00:05;4.03;87.02
51878;SHT31;37911;51.526;11.536;2023-01-09T01:03:09;4.06;86.99
51878;SHT31;37911;51.526;11.536;2023-01-09T01:06:12;4.04;87.03
51878;SHT31;37911;51.526;11.536;2023-01-09T01:09:28;4.10;87.30
51878;SHT31;37911;51.526;11.536;2023-01-09T01:12:34;4.18;87.18
51878;SHT31;37911;51.526;11.536;2023-01-09T01:15:37;4.18;87.15
51878;SHT31;37911;51.526;11.536;2023-01-09T01:18:41;4.14;87.33
51878;SHT31;37911;51.526;11.536;2023-01-09T01:21:44;4.11;87.44
51878;SHT31;37911;51.526;11.536;2023-01-09T01:24:47;4.09;87.51
51878;SHT31;37911;51.526;11.536;2023-01-09T01:27:53;4.13;87.77
51878;SHT31;37911;51.526;11.536;2023-01-09T01:30:56;4.28;87.99
51878;SHT31;37911;51.526;11.536;2023-01-09T01:34:00;4.38;88.94
51878;SHT31;37911;51.526;11.536;2023-01-09T01:37:03;4.48;89.06
51878;SHT31;37911;51.526;11.536;2023-01-09T01:40:08;4.55;89.13
51878;SHT31;37911;51.526;11.536;2023-01-09T01:43:14;4.67;89.09
51878;SHT31;37911;51.526;11.536;2023-01-09T01:46:18;4.69;89.13
51878;SHT31;37911;51.526;11.536;2023-01-09T01:49:22;4.73;89.13
51878;SHT31;37911;51.526;11.536;2023-01-09T01:52:25;4.75;89.14
51878;SHT31;37911;51.526;11.536;2023-01-09T01:55:29;4.81;89.20
51878;SHT31;37911;51.526;11.536;2023-01-09T01:58:39;4.83;89.13
51878;SHT31;37911;51.526;11.536;2023-01-09T02:01:48;4.85;89.00
51878;SHT31;37911;51.526;11.536;2023-01-09T02:04:54;4.89;88.87
51878;SHT31;37911;51.526;11.536;2023-01-09T02:07:57;4.91;88.86
51878;SHT31;37911;51.526;11.536;2023-01-09T02:11:01;4.93;88.81
51878;SHT31;37911;51.526;11.536;2023-01-09T02:14:08;4.93;88.87
51878;SHT31;37911;51.526;11.536;2023-01-09T02:17:18;4.93;88.94
51878;SHT31;37911;51.526;11.536;2023-01-09T02:20:35;4.93;88.92
51878;SHT31;37911;51.526;11.536;2023-01-09T02:24:01;4.97;88.78
51878;SHT31;37911;51.526;11.536;2023-01-09T02:27:14;4.97;88.67
51878;SHT31;37911;51.526;11.536;2023-01-09T02:30:29;5.00;88.66
51878;SHT31;37911;51.526;11.536;2023-01-09T02:33:44;5.05;88.72
51878;SHT31;37911;51.526;11.536;2023-01-09T02:36:57;5.09;88.67
51878;SHT31;37911;51.526;11.536;2023-01-09T02:40:05;5.08;88.63
51878;SHT31;37911;51.526;11.536;2023-01-09T02:43:11;5.05;88.78
51878;SHT31;37911;51.526;11.536;2023-01-09T02:46:21;5.09;88.87
51878;SHT31;37911;51.526;11.536;2023-01-09T02:49:24;5.08;88.87
51878;SHT31;37911;51.526;11.536;2023-01-09T02:52:36;5.09;88.92
51878;SHT31;37911;51.526;11.536;2023-01-09T02:55:55;5.11;88.89
51878;SHT31;37911;51.526;11.536;2023-01-09T02:59:17;5.15;88.95
51878;SHT31;37911;51.526;11.536;2023-01-09T03:02:36;5.13;89.11
51878;SHT31;37911;51.526;11.536;2023-01-09T03:05:44;5.18;89.13
51878;SHT31;37911;51.526;11.536;2023-01-09T03:08:52;5.19;89.16
51878;SHT31;37911;51.526;11.536;2023-01-09T03:12:00;5.19;89.33
51878;SHT31;37911;51.526;11.536;2023-01-09T03:15:10;5.29;89.84
51878;SHT31;37911;51.526;11.536;2023-01-09T03:18:20;5.47;89.91
51878;SHT31;37911;51.526;11.536;2023-01-09T03:21:25;5.58;90.34
51878;SHT31;37911;51.526;11.536;2023-01-09T03:24:28;5.68;90.43
51878;SHT31;37911;51.526;11.536;2023-01-09T03:27:32;5.77;90.43
51878;SHT31;37911;51.526;11.536;2023-01-09T03:30:35;5.88;90.62
51878;SHT31;37911;51.526;11.536;2023-01-09T03:33:41;5.93;90.72
51878;SHT31;37911;51.526;11.536;2023-01-09T03:36:45;5.94;90.74
51878;SHT31;37911;51.526;11.536;2023-01-09T03:39:48;5.91;90.72
51878;SHT31;37911;51.526;11.536;2023-01-09T03:42:51;5.95;90.91
51878;SHT31;37911;51.526;11.536;2023-01-09T03:45:55;5.95;91.01
51878;SHT31;37911;51.526;11.536;2023-01-09T03:49:00;6.04;90.94
51878;SHT31;37911;51.526;11.536;2023-01-09T03:52:04;6.05;90.82
51878;SHT31;37911;51.526;11.536;2023-01-09T03:55:07;6.05;90.82
51878;SHT31;37911;51.526;11.536;2023-01-09T03:58:11;6.05;90.88
51878;SHT31;37911;51.526;11.536;2023-01-09T04:01:14;6.04;90.92
51878;SHT31;37911;51.526;11.536;2023-01-09T04:04:21;6.07;90.89
51878;SHT31;37911;51.526;11.536;2023-01-09T04:07:24;6.05;90.94
51878;SHT31;37911;51.526;11.536;2023-01-09T04:10:27;6.04;91.01
51878;SHT31;37911;51.526;11.536;2023-01-09T04:13:30;6.07;90.95
51878;SHT31;37911;51.526;11.536;2023-01-09T04:16:34;6.10;90.96
51878;SHT31;37911;51.526;11.536;2023-01-09T04:19:39;6.07;90.99
51878;SHT31;37911;51.526;11.536;2023-01-09T04:22:43;6.08;91.05
51878;SHT31;37911;51.526;11.536;2023-01-09T04:25:46;6.07;91.02
51878;SHT31;37911;51.526;11.536;2023-01-09T04:28:49;6.07;90.98
51878;SHT31;37911;51.526;11.536;2023-01-09T04:31:53;6.08;91.01
51878;SHT31;37911;51.526;11.536;2023-01-09T04:34:58;6.07;91.00
51878;SHT31;37911;51.526;11.536;2023-01-09T04:38:02;6.05;90.99
51878;SHT31;37911;51.526;11.536;2023-01-09T04:41:05;6.02;91.05
51878;SHT31;37911;51.526;11.536;2023-01-09T04:44:08;6.02;90.96
51878;SHT31;37911;51.526;11.536;2023-01-09T04:47:12;6.04;90.98
51878;SHT31;37911;51.526;11.536;2023-01-09T04:50:18;6.01;91.00
51878;SHT31;37911;51.526;11.536;2023-01-09T04:53:21;6.00;91.04
51878;SHT31;37911;51.526;11.536;2023-01-09T04:56:24;6.01;91.11
51878;SHT31;37911;51.526;11.536;2023-01-09T04:59:28;5.97;91.20
51878;SHT31;37911;51.526;11.536;2023-01-09T05:02:31;6.00;91.24
51878;SHT31;37911;51.526;11.536;2023-01-09T05:05:38;5.98;91.29
51878;SHT31;37911;51.526;11.536;2023-01-09T05:08:41;5.95;91.39
51878;SHT31;37911;51.526;11.536;2023-01-09T05:11:44;5.97;91.41
51878;SHT31;37911;51.526;11.536;2023-01-09T05:14:48;5.93;91.49
51878;SHT31;37911;51.526;11.536;2023-01-09T05:17:51;5.91;91.54
51878;SHT31;37911;51.526;11.536;2023-01-09T05:20:57;5.90;91.68
51878;SHT31;37911;51.526;11.536;2023-01-09T05:24:01;5.88;91.70
51878;SHT31;37911;51.526;11.536;2023-01-09T05:27:04;5.84;91.90
51878;SHT31;37911;51.526;11.536;2023-01-09T05:30:09;5.83;91.90
51878;SHT31;37911;51.526;11.536;2023-01-09T05:33:13;5.86;91.94
51878;SHT31;37911;51.526;11.536;2023-01-09T05:36:19;5.84;91.92
51878;SHT31;37911;51.526;11.536;2023-01-09T05:39:23;5.86;91.94
51878;SHT31;37911;51.526;11.536;2023-01-09T05:42:26;5.84;91.97
51878;SHT31;37911;51.526;11.536;2023-01-09T05:45:29;5.83;91.98
51878;SHT31;37911;51.526;11.536;2023-01-09T05:48:32;5.86;91.95
51878;SHT31;37911;51.526;11.536;2023-01-09T05:51:39;5.84;92.07
51878;SHT31;37911;51.526;11.536;2023-01-09T05:54:42;5.87;92.13
51878;SHT31;37911;51.526;11.536;2023-01-09T05:57:46;5.88;92.10
51878;SHT31;37911;51.526;11.536;2023-01-09T06:00:51;5.88;92.08
51878;SHT31;37911;51.526;11.536;2023-01-09T06:03:54;5.87;92.04
51878;SHT31;37911;51.526;11.536;2023-01-09T06:07:00;5.91;91.88
51878;SHT31;37911;51.526;11.536;2023-01-09T06:10:04;5.88;91.92
51878;SHT31;37911;51.526;11.536;2023-01-09T06:13:08;5.87;91.92
51878;SHT31;37911;51.526;11.536;2023-01-09T06:16:12;5.87;91.95
51878;SHT31;37911;51.526;11.536;2023-01-09T06:19:15;5.88;91.97
51878;SHT31;37911;51.526;11.536;2023-01-09T06:22:21;5.93;91.92
51878;SHT31;37911;51.526;11.536;2023-01-09T06:25:25;5.91;91.89
51878;SHT31;37911;51.526;11.536;2023-01-09T06:28:28;5.94;91.91
51878;SHT31;37911;51.526;11.536;2023-01-09T06:31:31;5.91;91.99
51878;SHT31;37911;51.526;11.536;2023-01-09T06:34:34;5.95;91.91
51878;SHT31;37911;51.526;11.536;2023-01-09T06:37:40;5.94;92.07
51878;SHT31;37911;51.526;11.536;2023-01-09T06:40:44;5.91;92.10
51878;SHT31;37911;51.526;11.536;2023-01-09T06:43:48;5.94;92.13
51878;SHT31;37911;51.526;11.536;2023-01-09T06:46:52;5.98;92.08
51878;SHT31;37911;51.526;11.536;2023-01-09T06:49:56;5.98;92.12
51878;SHT31;37911;51.526;11.536;2023-01-09T06:53:02;5.95;92.16
51878;SHT31;37911;51.526;11.536;2023-01-09T06:56:06;5.97;92.15
51878;SHT31;37911;51.526;11.536;2023-01-09T06:59:10;5.95;92.16
51878;SHT31;37911;51.526;11.536;2023-01-09T07:02:16;5.97;92.19
51878;SHT31;37911;51.526;11.536;2023-01-09T07:05:20;5.95;92.22
51878;SHT31;37911;51.526;11.536;2023-01-09T07:08:26;5.94;92.21
51878;SHT31;37911;51.526;11.536;2023-01-09T07:11:29;5.97;92.23
51878;SHT31;37911;51.526;11.536;2023-01-09T07:14:35;6.02;92.19
51878;SHT31;37911;51.526;11.536;2023-01-09T07:17:40;6.00;92.19
51878;SHT31;37911;51.526;11.536;2023-01-09T07:20:43;6.02;92.16
51878;SHT31;37911;51.526;11.536;2023-01-09T07:23:49;6.08;92.22
51878;SHT31;37911;51.526;11.536;2023-01-09T07:26:52;6.11;92.11
51878;SHT31;37911;51.526;11.536;2023-01-09T07:29:55;6.20;92.02
51878;SHT31;37911;51.526;11.536;2023-01-09T07:33:05;6.22;91.94
51878;SHT31;37911;51.526;11.536;2023-01-09T07:36:10;6.22;91.89
51878;SHT31;37911;51.526;11.536;2023-01-09T07:39:16;6.21;91.70
51878;SHT31;37911;51.526;11.536;2023-01-09T07:42:19;6.22;91.62
51878;SHT31;37911;51.526;11.536;2023-01-09T07:45:23;6.21;91.52
51878;SHT31;37911;51.526;11.536;2023-01-09T07:48:26;6.29;91.27
51878;SHT31;37911;51.526;11.536;2023-01-09T07:51:31;6.33;91.11
51878;SHT31;37911;51.526;11.536;2023-01-09T07:54:36;6.31;91.07
51878;SHT31;37911;51.526;11.536;2023-01-09T07:57:40;6.35;90.92
51878;SHT31;37911;51.526;11.536;2023-01-09T08:00:43;6.41;90.93
51878;SHT31;37911;51.526;11.536;2023-01-09T08:03:47;6.43;90.91
51878;SHT31;37911;51.526;11.536;2023-01-09T08:06:52;6.42;90.87
51878;SHT31;37911;51.526;11.536;2023-01-09T08:09:58;6.43;90.78
51878;SHT31;37911;51.526;11.536;2023-01-09T08:13:02;6.49;90.80
51878;SHT31;37911;51.526;11.536;2023-01-09T08:16:06;6.52;90.35
51878;SHT31;37911;51.526;11.536;2023-01-09T08:19:09;6.55;90.28
51878;SHT31;37911;51.526;11.536;2023-01-09T08:22:13;6.62;90.29
51878;SHT31;37911;51.526;11.536;2023-01-09T08:25:19;6.68;89.98
51878;SHT31;37911;51.526;11.536;2023-01-09T08:28:22;6.72;89.84
51878;SHT31;37911;51.526;11.536;2023-01-09T08:31:25;6.75;89.63
51878;SHT31;37911;51.526;11.536;2023-01-09T08:34:29;6.77;89.27
51878;SHT31;37911;51.526;11.536;2023-01-09T08:37:32;6.82;89.15
51878;SHT31;37911;51.526;11.536;2023-01-09T08:40:38;6.89;88.81
51878;SHT31;37911;51.526;11.536;2023-01-09T08:43:41;6.92;88.35
51878;SHT31;37911;51.526;11.536;2023-01-09T08:46:57;6.96;87.94
51878;SHT31;37911;51.526;11.536;2023-01-09T08:50:09;6.96;87.51
51878;SHT31;37911;51.526;11.536;2023-01-09T08:53:13;6.93;87.30
51878;SHT31;37911;51.526;11.536;2023-01-09T08:56:19;6.96;87.07
51878;SHT31;37911;51.526;11.536;2023-01-09T08:59:23;6.97;86.78
51878;SHT31;37911;51.526;11.536;2023-01-09T09:02:26;7.00;86.41
51878;SHT31;37911;51.526;11.536;2023-01-09T09:05:30;6.99;86.23
51878;SHT31;37911;51.526;11.536;2023-01-09T09:08:34;6.97;86.07
51878;SHT31;37911;51.526;11.536;2023-01-09T09:11:40;7.01;85.85
51878;SHT31;37911;51.526;11.536;2023-01-09T09:14:43;7.03;85.85
51878;SHT31;37911;51.526;11.536;2023-01-09T09:18:01;7.03;85.53
51878;SHT31;37911;51.526;11.536;2023-01-09T09:21:05;7.07;85.53
51878;SHT31;37911;51.526;11.536;2023-01-09T09:24:10;7.16;85.19
51878;SHT31;37911;51.526;11.536;2023-01-09T09:27:16;7.18;85.09
51878;SHT31;37911;51.526;11.536;2023-01-09T09:30:21;7.18;85.50
51878;SHT31;37911;51.526;11.536;2023-01-09T09:33:24;7.24;85.29
51878;SHT31;37911;51.526;11.536;2023-01-09T09:36:29;7.28;85.12
51878;SHT31;37911;51.526;11.536;2023-01-09T09:39:33;7.31;85.20
51878;SHT31;37911;51.526;11.536;2023-01-09T09:42:57;7.30;85.34
51878;SHT31;37911;51.526;11.536;2023-01-09T09:46:27;7.27;84.92
51878;SHT31;37911;51.526;11.536;2023-01-09T09:49:40;7.31;84.76
51878;SHT31;37911;51.526;11.536;2023-01-09T09:52:55;7.38;84.17
51878;SHT31;37911;51.526;11.536;2023-01-09T09:56:02;7.48;83.47
51878;SHT31;37911;51.526;11.536;2023-01-09T09:59:14;7.62;82.93
51878;SHT31;37911;51.526;11.536;2023-01-09T10:02:28;7.64;81.24
51878;SHT31;37911;51.526;11.536;2023-01-09T10:05:34;7.67;81.10
51878;SHT31;37911;51.526;11.536;2023-01-09T10:08:52;7.72;81.53
51878;SHT31;37911;51.526;11.536;2023-01-09T10:12:00;7.82;80.72
51878;SHT31;37911;51.526;11.536;2023-01-09T10:15:14;8.12;78.90
51878;SHT31;37911;51.526;11.536;2023-01-09T10:18:25;8.33;78.45
51878;SHT31;37911;51.526;11.536;2023-01-09T10:21:35;8.40;76.78
51878;SHT31;37911;51.526;11.536;2023-01-09T10:24:52;8.34;76.44
51878;SHT31;37911;51.526;11.536;2023-01-09T10:28:10;8.16;76.68
51878;SHT31;37911;51.526;11.536;2023-01-09T10:31:27;8.05;76.38
51878;SHT31;37911;51.526;11.536;2023-01-09T10:34:41;8.01;76.46
51878;SHT31;37911;51.526;11.536;2023-01-09T10:37:49;7.96;77.36
51878;SHT31;37911;51.526;11.536;2023-01-09T10:40:58;7.92;78.27
51878;SHT31;37911;51.526;11.536;2023-01-09T10:44:07;7.88;77.87
51878;SHT31;37911;51.526;11.536;2023-01-09T10:47:23;7.83;77.71
51878;SHT31;37911;51.526;11.536;2023-01-09T10:50:31;7.82;77.83
51878;SHT31;37911;51.526;11.536;2023-01-09T10:53:38;7.79;77.60
51878;SHT31;37911;51.526;11.536;2023-01-09T10:56:49;7.79;78.74
51878;SHT31;37911;51.526;11.536;2023-01-09T10:59:55;7.86;78.35
51878;SHT31;37911;51.526;11.536;2023-01-09T11:03:01;7.86;78.90
51878;SHT31;37911;51.526;11.536;2023-01-09T11:06:21;7.89;79.57
51878;SHT31;37911;51.526;11.536;2023-01-09T11:09:26;7.85;79.46
51878;SHT31;37911;51.526;11.536;2023-01-09T11:12:31;7.86;79.99
51878;SHT31;37911;51.526;11.536;2023-01-09T11:15:35;7.81;79.45
51878;SHT31;37911;51.526;11.536;2023-01-09T11:18:49;7.78;79.22
51878;SHT31;37911;51.526;11.536;2023-01-09T11:22:05;7.75;79.44
51878;SHT31;37911;51.526;11.536;2023-01-09T11:25:13;7.72;80.09
51878;SHT31;37911;51.526;11.536;2023-01-09T11:28:16;7.69;79.48
51878;SHT31;37911;51.526;11.536;2023-01-09T11:31:20;7.69;79.76
51878;SHT31;37911;51.526;11.536;2023-01-09T11:34:29;7.67;79.58
51878;SHT31;37911;51.526;11.536;2023-01-09T11:37:33;7.67;79.29
51878;SHT31;37911;51.526;11.536;2023-01-09T11:40:45;7.67;79.71
51878;SHT31;37911;51.526;11.536;2023-01-09T11:43:50;7.71;79.00
51878;SHT31;37911;51.526;11.536;2023-01-09T11:46:53;7.81;80.30
51878;SHT31;37911;51.526;11.536;2023-01-09T11:50:15;8.17;78.93
51878;SHT31;37911;51.526;11.536;2023-01-09T11:53:19;8.57;77.77
51878;SHT31;37911;51.526;11.536;2023-01-09T11:56:23;9.03;77.54
51878;SHT31;37911;51.526;11.536;2023-01-09T11:59:28;9.08;76.24
51878;SHT31;37911;51.526;11.536;2023-01-09T12:02:48;8.88;75.62
51878;SHT31;37911;51.526;11.536;2023-01-09T12:06:02;8.89;75.64
51878;SHT31;37911;51.526;11.536;2023-01-09T12:09:11;8.89;75.64
51878;SHT31;37911;51.526;11.536;2023-01-09T12:12:24;8.77;73.68
51878;SHT31;37911;51.526;11.536;2023-01-09T12:15:32;8.67;73.81
51878;SHT31;37911;51.526;11.536;2023-01-09T12:18:47;8.67;74.71
51878;SHT31;37911;51.526;11.536;2023-01-09T12:22:01;8.61;74.76
51878;SHT31;37911;51.526;11.536;2023-01-09T12:25:22;8.50;74.32
51878;SHT31;37911;51.526;11.536;2023-01-09T12:28:42;8.47;74.83
51878;SHT31;37911;51.526;11.536;2023-01-09T12:32:06;8.28;74.89
51878;SHT31;37911;51.526;11.536;2023-01-09T12:35:23;8.26;75.84
51878;SHT31;37911;51.526;11.536;2023-01-09T12:38:40;8.10;76.51
51878;SHT31;37911;51.526;11.536;2023-01-09T12:41:52;8.02;77.50
51878;SHT31;37911;51.526;11.536;2023-01-09T12:45:17;7.89;77.58
51878;SHT31;37911;51.526;11.536;2023-01-09T12:48:38;7.82;77.69
51878;SHT31;37911;51.526;11.536;2023-01-09T12:51:47;7.81;77.84
51878;SHT31;37911;51.526;11.536;2023-01-09T12:55:03;7.78;78.46
51878;SHT31;37911;51.526;11.536;2023-01-09T12:58:21;7.72;78.55
51878;SHT31;37911;51.526;11.536;2023-01-09T13:01:28;7.64;78.83
51878;SHT31;37911;51.526;11.536;2023-01-09T13:04:38;7.58;78.79
51878;SHT31;37911;51.526;11.536;2023-01-09T13:07:45;7.52;79.09
51878;SHT31;37911;51.526;11.536;2023-01-09T13:10:55;7.59;79.52
51878;SHT31;37911;51.526;11.536;2023-01-09T13:14:05;7.61;79.41
51878;SHT31;37911;51.526;11.536;2023-01-09T13:17:16;7.65;79.19
51878;SHT31;37911;51.526;11.536;2023-01-09T13:20:23;7.69;79.38
51878;SHT31;37911;51.526;11.536;2023-01-09T13:23:41;7.74;79.07
51878;SHT31;37911;51.526;11.536;2023-01-09T13:26:53;7.75;79.20
51878;SHT31;37911;51.526;11.536;2023-01-09T13:30:07;7.77;79.02
51878;SHT31;37911;51.526;11.536;2023-01-09T13:33:20;7.79;78.68
51878;SHT31;37911;51.526;11.536;2023-01-09T13:36:27;7.85;78.79
51878;SHT31;37911;51.526;11.536;2023-01-09T13:39:33;7.91;78.82
51878;SHT31;37911;51.526;11.536;2023-01-09T13:42:39;7.96;78.24
51878;SHT31;37911;51.526;11.536;2023-01-09T13:45:49;7.99;77.80
51878;SHT31;37911;51.526;11.536;2023-01-09T13:48:52;7.95;77.69
51878;SHT31;37911;51.526;11.536;2023-01-09T13:51:58;7.92;78.46
51878;SHT31;37911;51.526;11.536;2023-01-09T13:55:22;7.91;78.07
51878;SHT31;37911;51.526;11.536;2023-01-09T13:58:29;7.83;78.19
51878;SHT31;37911;51.526;11.536;2023-01-09T14:01:43;7.85;78.36
51878;SHT31;37911;51.526;11.536;2023-01-09T14:04:46;7.81;78.11
51878;SHT31;37911;51.526;11.536;2023-01-09T14:07:59;7.77;78.46
51878;SHT31;37911;51.526;11.536;2023-01-09T14:11:04;7.77;78.75
51878;SHT31;37911;51.526;11.536;2023-01-09T14:14:24;7.75;78.81
51878;SHT31;37911;51.526;11.536;2023-01-09T14:17:33;7.74;78.38
51878;SHT31;37911;51.526;11.536;2023-01-09T14:20:40;7.71;78.30
51878;SHT31;37911;51.526;11.536;2023-01-09T14:23:50;7.68;78.58
51878;SHT31;37911;51.526;11.536;2023-01-09T14:26:56;7.67;78.61
51878;SHT31;37911;51.526;11.536;2023-01-09T14:30:33;7.67;79.05
51878;SHT31;37911;51.526;11.536;2023-01-09T14:33:36;7.62;79.13
51878;SHT31;37911;51.526;11.536;2023-01-09T14:36:40;7.67;79.14
51878;SHT31;37911;51.526;11.536;2023-01-09T14:39:44;7.64;79.24
51878;SHT31;37911;51.526;11.536;2023-01-09T14:42:51;7.57;79.48
51878;SHT31;37911;51.526;11.536;2023-01-09T14:46:03;7.57;79.38
51878;SHT31;37911;51.526;11.536;2023-01-09T14:49:16;7.64;79.15
51878;SHT31;37911;51.526;11.536;2023-01-09T14:52:26;7.62;78.91
51878;SHT31;37911;51.526;11.536;2023-01-09T14:55:35;7.65;78.86
51878;SHT31;37911;51.526;11.536;2023-01-09T14:58:43;7.59;78.73
51878;SHT31;37911;51.526;11.536;2023-01-09T15:01:49;7.58;78.79
51878;SHT31;37911;51.526;11.536;2023-01-09T15:04:59;7.55;79.01
51878;SHT31;37911;51.526;11.536;2023-01-09T15:08:07;7.52;78.70
51878;SHT31;37911;51.526;11.536;2023-01-09T15:11:10;7.54;78.88
51878;SHT31;37911;51.526;11.536;2023-01-09T15:14:25;7.55;78.54
51878;SHT31;37911;51.526;11.536;2023-01-09T15:17:34;7.54;78.50
51878;SHT31;37911;51.526;11.536;2023-01-09T15:20:38;7.58;78.42
51878;SHT31;37911;51.526;11.536;2023-01-09T15:23:41;7.64;78.99
51878;SHT31;37911;51.526;11.536;2023-01-09T15:26:50;7.59;78.55
51878;SHT31;37911;51.526;11.536;2023-01-09T15:29:55;7.61;78.82
51878;SHT31;37911;51.526;11.536;2023-01-09T15:33:02;7.55;78.71
51878;SHT31;37911;51.526;11.536;2023-01-09T15:36:11;7.54;78.78
51878;SHT31;37911;51.526;11.536;2023-01-09T15:39:19;7.55;78.86
51878;SHT31;37911;51.526;11.536;2023-01-09T15:42:26;7.52;79.06
51878;SHT31;37911;51.526;11.536;2023-01-09T15:45:44;7.50;78.83
51878;SHT31;37911;51.526;11.536;2023-01-09T15:48:54;7.52;78.84
51878;SHT31;37911;51.526;11.536;2023-01-09T15:51:57;7.51;78.63
51878;SHT31;37911;51.526;11.536;2023-01-09T15:55:01;7.47;78.55
51878;SHT31;37911;51.526;11.536;2023-01-09T15:58:24;7.47;78.62
51878;SHT31;37911;51.526;11.536;2023-01-09T16:01:29;7.48;78.50
51878;SHT31;37911;51.526;11.536;2023-01-09T16:04:39;7.46;78.70
51878;SHT31;37911;51.526;11.536;2023-01-09T16:07:43;7.50;78.25
51878;SHT31;37911;51.526;11.536;2023-01-09T16:10:52;7.47;78.68
51878;SHT31;37911;51.526;11.536;2023-01-09T16:13:57;7.46;78.59
51878;SHT31;37911;51.526;11.536;2023-01-09T16:17:06;7.51;78.77
51878;SHT31;37911;51.526;11.536;2023-01-09T16:20:24;7.55;78.54
51878;SHT31;37911;51.526;11.536;2023-01-09T16:23:30;7.58;78.54
51878;SHT31;37911;51.526;11.536;2023-01-09T16:26:35;7.57;78.11
51878;SHT31;37911;51.526;11.536;2023-01-09T16:29:45;7.51;78.48
51878;SHT31;37911;51.526;11.536;2023-01-09T16:32:49;7.46;78.79
51878;SHT31;37911;51.526;11.536;2023-01-09T16:35:55;7.43;78.52
51878;SHT31;37911;51.526;11.536;2023-01-09T16:39:00;7.41;78.70
51878;SHT31;37911;51.526;11.536;2023-01-09T16:42:07;7.38;79.34
51878;SHT31;37911;51.526;11.536;2023-01-09T16:45:24;7.38;79.60
51878;SHT31;37911;51.526;11.536;2023-01-09T16:48:29;7.38;79.60
51878;SHT31;37911;51.526;11.536;2023-01-09T16:51:37;7.32;79.55
51878;SHT31;37911;51.526;11.536;2023-01-09T16:54:40;7.31;79.89
51878;SHT31;37911;51.526;11.536;2023-01-09T16:57:46;7.30;79.96
51878;SHT31;37911;51.526;11.536;2023-01-09T17:00:51;7.26;80.58
51878;SHT31;37911;51.526;11.536;2023-01-09T17:03:55;7.21;80.85
51878;SHT31;37911;51.526;11.536;2023-01-09T17:07:00;7.23;80.48
51878;SHT31;37911;51.526;11.536;2023-01-09T17:10:05;7.26;79.64
51878;SHT31;37911;51.526;11.536;2023-01-09T17:13:09;7.24;80.68
51878;SHT31;37911;51.526;11.536;2023-01-09T17:16:14;7.27;80.37
51878;SHT31;37911;51.526;11.536;2023-01-09T17:19:19;7.20;80.37
51878;SHT31;37911;51.526;11.536;2023-01-09T17:22:25;7.16;80.11
51878;SHT31;37911;51.526;11.536;2023-01-09T17:25:28;7.17;80.27
51878;SHT31;37911;51.526;11.536;2023-01-09T17:28:47;7.16;80.06
51878;SHT31;37911;51.526;11.536;2023-01-09T17:31:51;7.14;80.10
51878;SHT31;37911;51.526;11.536;2023-01-09T17:34:54;7.14;80.24
51878;SHT31;37911;51.526;11.536;2023-01-09T17:38:00;7.18;80.52
51878;SHT31;37911;51.526;11.536;2023-01-09T17:41:04;7.21;79.99
51878;SHT31;37911;51.526;11.536;2023-01-09T17:44:08;7.21;80.12
51878;SHT31;37911;51.526;11.536;2023-01-09T17:47:13;7.13;80.45
51878;SHT31;37911;51.526;11.536;2023-01-09T17:50:19;7.01;80.22
51878;SHT31;37911;51.526;11.536;2023-01-09T17:53:33;7.06;80.46
51878;SHT31;37911;51.526;11.536;2023-01-09T17:56:37;6.92;80.06
51878;SHT31;37911;51.526;11.536;2023-01-09T17:59:41;6.89;79.97
51878;SHT31;37911;51.526;11.536;2023-01-09T18:02:45;6.85;80.22
51878;SHT31;37911;51.526;11.536;2023-01-09T18:05:48;6.85;80.27
51878;SHT31;37911;51.526;11.536;2023-01-09T18:08:54;6.68;80.67
51878;SHT31;37911;51.526;11.536;2023-01-09T18:11:58;6.57;81.28
51878;SHT31;37911;51.526;11.536;2023-01-09T18:15:06;6.49;81.61
51878;SHT31;37911;51.526;11.536;2023-01-09T18:18:11;6.42;81.95
51878;SHT31;37911;51.526;11.536;2023-01-09T18:21:17;6.36;82.03
51878;SHT31;37911;51.526;11.536;2023-01-09T18:24:26;6.35;82.11
51878;SHT31;37911;51.526;11.536;2023-01-09T18:27:30;6.31;82.16
51878;SHT31;37911;51.526;11.536;2023-01-09T18:30:34;6.24;82.31
51878;SHT31;37911;51.526;11.536;2023-01-09T18:33:39;6.18;82.60
51878;SHT31;37911;51.526;11.536;2023-01-09T18:36:42;6.17;82.63
51878;SHT31;37911;51.526;11.536;2023-01-09T18:39:49;6.15;82.75
51878;SHT31;37911;51.526;11.536;2023-01-09T18:42:52;6.12;82.72
51878;SHT31;37911;51.526;11.536;2023-01-09T18:45:55;6.08;82.78
51878;SHT31;37911;51.526;11.536;2023-01-09T18:49:00;6.10;82.85
51878;SHT31;37911;51.526;11.536;2023-01-09T18:52:04;6.07;82.99
51878;SHT31;37911;51.526;11.536;2023-01-09T18:55:10;6.05;83.12
51878;SHT31;37911;51.526;11.536;2023-01-09T18:58:13;6.02;83.27
51878;SHT31;37911;51.526;11.536;2023-01-09T19:01:16;6.07;83.29
51878;SHT31;37911;51.526;11.536;2023-01-09T19:04:21;6.07;83.38
51878;SHT31;37911;51.526;11.536;2023-01-09T19:07:24;6.04;83.48
51878;SHT31;37911;51.526;11.536;2023-01-09T19:10:30;6.02;83.53
51878;SHT31;37911;51.526;11.536;2023-01-09T19:13:34;6.05;83.54
51878;SHT31;37911;51.526;11.536;2023-01-09T19:16:38;6.04;83.59
51878;SHT31;37911;51.526;11.536;2023-01-09T19:19:41;6.05;83.59
51878;SHT31;37911;51.526;11.536;2023-01-09T19:22:45;6.07;83.73
51878;SHT31;37911;51.526;11.536;2023-01-09T19:25:51;6.08;83.70
51878;SHT31;37911;51.526;11.536;2023-01-09T19:28:54;6.05;83.71
51878;SHT31;37911;51.526;11.536;2023-01-09T19:31:57;5.97;84.01
51878;SHT31;37911;51.526;11.536;2023-01-09T19:35:01;5.95;84.17
51878;SHT31;37911;51.526;11.536;2023-01-09T19:38:04;6.00;84.61
51878;SHT31;37911;51.526;11.536;2023-01-09T19:41:12;6.05;84.31